createdAt,value
2023-01-29T00:02:08.004Z,10.23
2023-01-29T00:04:34.249Z,7.93
2023-01-29T00:07:00.390Z,8.50
2023-01-29T00:09:26.559Z,10.57
2023-01-29T00:11:52.698Z,8.57
2023-01-29T00:14:18.836Z,8.43
2023-01-29T00:16:45.171Z,9.95
2023-01-29T00:19:11.358Z,9.52
2023-01-29T00:21:37.498Z,9.98
2023-01-29T00:24:03.726Z,8.05
2023-01-29T00:26:29.930Z,8.57
2023-01-29T00:28:56.055Z,8.35
2023-01-29T00:31:22.476Z,7.18
2023-01-29T00:33:48.763Z,10.68
2023-01-29T00:36:14.979Z,8.80
2023-01-29T00:38:41.167Z,9.18
2023-01-29T00:41:07.294Z,10.15
2023-01-29T00:43:33.438Z,8.23
2023-01-29T00:45:59.621Z,10.90
2023-01-29T00:48:25.918Z,10.30
2023-01-29T00:50:52.053Z,7.45
2023-01-29T00:53:18.205Z,9.15
2023-01-29T00:55:44.416Z,9.65
2023-01-29T00:58:10.617Z,9.70
2023-01-29T01:00:36.886Z,8.93
2023-01-29T01:03:03.026Z,9.43
2023-01-29T01:05:30.240Z,9.38
2023-01-29T01:07:56.414Z,7.85
2023-01-29T01:10:22.603Z,7.78
2023-01-29T01:12:48.769Z,7.90
2023-01-29T01:15:14.924Z,9.60
2023-01-29T01:17:41.104Z,9.55
2023-01-29T01:20:07.278Z,7.10
2023-01-29T01:22:33.457Z,10.82
2023-01-29T01:24:59.682Z,8.57
2023-01-29T01:27:25.899Z,9.30
2023-01-29T01:29:52.066Z,10.27
2023-01-29T01:32:18.280Z,7.97
2023-01-29T01:34:44.412Z,8.23
2023-01-29T01:37:10.597Z,13.73
2023-01-29T01:39:36.720Z,10.43
2023-01-29T01:42:02.875Z,7.55
2023-01-29T01:44:29.051Z,8.80
2023-01-29T01:46:55.202Z,6.95
2023-01-29T01:49:21.392Z,7.57
2023-01-29T01:51:47.557Z,8.68
2023-01-29T01:54:13.677Z,9.93
2023-01-29T01:56:39.820Z,9.65
2023-01-29T01:59:05.980Z,8.25
2023-01-29T02:01:32.138Z,7.35
2023-01-29T02:03:58.366Z,7.65
2023-01-29T02:06:24.560Z,10.98
2023-01-29T02:08:50.764Z,7.10
2023-01-29T02:11:16.948Z,8.65
2023-01-29T02:13:43.092Z,9.18
2023-01-29T02:16:09.415Z,8.35
2023-01-29T02:18:35.642Z,9.20
2023-01-29T02:21:01.807Z,8.15
2023-01-29T02:23:28.007Z,9.13
2023-01-29T02:25:54.158Z,8.93
2023-01-29T02:28:20.327Z,8.38
2023-01-29T02:30:46.479Z,9.48
2023-01-29T02:33:12.672Z,9.80
2023-01-29T02:35:38.812Z,8.15
2023-01-29T02:38:04.994Z,7.90
2023-01-29T02:40:31.188Z,8.40
2023-01-29T02:42:57.333Z,7.45
2023-01-29T02:45:23.460Z,11.35
2023-01-29T02:47:49.790Z,9.23
2023-01-29T02:50:16.314Z,11.48
2023-01-29T02:52:42.682Z,7.80
2023-01-29T02:55:08.989Z,7.47
2023-01-29T02:57:35.134Z,6.63
2023-01-29T03:00:01.309Z,7.72
2023-01-29T03:02:27.538Z,6.70
2023-01-29T03:04:53.715Z,9.05
2023-01-29T03:07:20.098Z,8.15
2023-01-29T03:09:46.266Z,11.23
2023-01-29T03:12:12.456Z,8.35
2023-01-29T03:14:38.626Z,8.88
2023-01-29T03:17:04.830Z,9.82
2023-01-29T03:19:31.053Z,9.50
2023-01-29T03:21:57.395Z,7.35
2023-01-29T03:24:23.571Z,8.30
2023-01-29T03:26:49.754Z,8.90
2023-01-29T03:29:15.927Z,8.52
2023-01-29T03:31:42.213Z,8.13
2023-01-29T03:34:08.484Z,9.13
2023-01-29T03:36:34.655Z,10.15
2023-01-29T03:39:00.836Z,11.93
2023-01-29T03:41:26.981Z,7.57
2023-01-29T03:43:53.159Z,9.35
2023-01-29T03:46:19.369Z,9.63
2023-01-29T03:48:45.574Z,9.65
2023-01-29T03:51:11.755Z,11.10
2023-01-29T03:53:37.918Z,10.70
2023-01-29T03:56:04.091Z,10.52
2023-01-29T03:58:30.268Z,8.75
2023-01-29T04:00:56.429Z,9.93
2023-01-29T04:03:22.606Z,10.35
2023-01-29T04:05:48.819Z,10.18
2023-01-29T04:08:14.998Z,9.18
2023-01-29T04:10:41.153Z,10.65
2023-01-29T04:13:07.329Z,11.00
2023-01-29T04:15:33.522Z,9.48
2023-01-29T04:17:59.704Z,9.95
2023-01-29T04:20:25.863Z,10.68
2023-01-29T04:22:52.042Z,9.43
2023-01-29T04:25:18.173Z,10.05
2023-01-29T04:27:44.369Z,9.63
2023-01-29T04:30:10.498Z,10.02
2023-01-29T04:32:36.671Z,10.82
2023-01-29T04:35:03.911Z,9.57
2023-01-29T04:37:30.111Z,12.55
2023-01-29T04:39:56.236Z,10.82
2023-01-29T04:42:22.462Z,9.10
2023-01-29T04:44:48.658Z,11.65
2023-01-29T04:47:14.866Z,11.55
2023-01-29T04:49:41.169Z,12.02
2023-01-29T04:52:07.353Z,11.50
2023-01-29T04:54:33.563Z,12.10
2023-01-29T04:56:59.727Z,10.82
2023-01-29T04:59:25.947Z,11.32
2023-01-29T05:01:52.164Z,10.23
2023-01-29T05:04:18.367Z,9.05
2023-01-29T05:06:44.585Z,9.57
2023-01-29T05:09:10.774Z,11.52
2023-01-29T05:11:36.954Z,9.77
2023-01-29T05:14:03.117Z,7.82
2023-01-29T05:16:29.255Z,7.32
2023-01-29T05:18:55.441Z,9.20
2023-01-29T05:21:21.646Z,9.57
2023-01-29T05:23:47.825Z,8.27
2023-01-29T05:26:14.018Z,12.32
2023-01-29T05:28:40.217Z,8.38
2023-01-29T05:31:06.492Z,10.30
2023-01-29T05:33:32.695Z,8.07
2023-01-29T05:35:58.837Z,11.27
2023-01-29T05:38:24.997Z,13.45
2023-01-29T05:40:51.197Z,13.75
2023-01-29T05:43:17.384Z,11.30
2023-01-29T05:45:43.600Z,11.55
2023-01-29T05:48:09.793Z,7.68
2023-01-29T05:50:35.961Z,10.82
2023-01-29T05:53:02.205Z,10.27
2023-01-29T05:55:28.327Z,11.93
2023-01-29T05:57:54.506Z,11.02
2023-01-29T06:00:20.708Z,10.82
2023-01-29T06:02:46.876Z,11.27
2023-01-29T06:05:13.046Z,11.63
2023-01-29T06:07:39.247Z,11.30
2023-01-29T06:10:05.369Z,10.43
2023-01-29T06:12:31.522Z,10.40
2023-01-29T06:14:57.686Z,12.60
2023-01-29T06:17:23.872Z,11.82
2023-01-29T06:19:50.054Z,15.43
2023-01-29T06:22:16.260Z,11.07
2023-01-29T06:24:42.452Z,10.80
2023-01-29T06:27:08.673Z,12.75
2023-01-29T06:29:34.920Z,11.25
2023-01-29T06:32:01.151Z,9.80
2023-01-29T06:34:27.355Z,11.63
2023-01-29T06:36:53.563Z,11.30
2023-01-29T06:39:19.699Z,10.85
2023-01-29T06:41:45.918Z,10.65
2023-01-29T06:44:12.123Z,11.65
2023-01-29T06:46:38.253Z,10.93
2023-01-29T06:49:04.404Z,12.05
2023-01-29T06:51:30.554Z,10.57
2023-01-29T06:53:56.718Z,13.05
2023-01-29T06:56:22.887Z,9.98
2023-01-29T06:58:49.053Z,10.88
2023-01-29T07:01:29.364Z,13.75
2023-01-29T07:04:01.126Z,12.55
2023-01-29T07:06:27.290Z,11.93
2023-01-29T07:08:53.488Z,14.57
2023-01-29T07:11:19.680Z,13.82
2023-01-29T07:13:45.884Z,13.52
2023-01-29T07:16:12.099Z,11.07
2023-01-29T07:18:38.367Z,18.17
2023-01-29T07:21:04.493Z,14.52
2023-01-29T07:23:30.624Z,12.13
2023-01-29T07:25:56.751Z,17.45
2023-01-29T07:28:22.882Z,13.18
2023-01-29T07:30:49.064Z,15.50
2023-01-29T07:33:15.205Z,13.43
2023-01-29T07:35:41.390Z,11.73
2023-01-29T07:38:07.517Z,11.15
2023-01-29T07:40:33.725Z,12.70
2023-01-29T07:42:59.918Z,12.00
2023-01-29T07:45:26.141Z,13.10
2023-01-29T07:47:52.296Z,9.73
2023-01-29T07:50:18.762Z,13.18
2023-01-29T07:52:45.087Z,13.75
2023-01-29T07:55:11.256Z,11.90
2023-01-29T07:57:37.438Z,12.60
2023-01-29T08:00:03.591Z,10.63
2023-01-29T08:02:29.801Z,11.10
2023-01-29T08:04:56.036Z,11.35
2023-01-29T08:07:22.205Z,10.00
2023-01-29T08:09:48.371Z,12.43
2023-01-29T08:12:14.529Z,9.68
2023-01-29T08:14:40.702Z,9.93
2023-01-29T08:17:06.939Z,12.13
2023-01-29T08:19:33.073Z,13.10
2023-01-29T08:21:59.253Z,14.15
2023-01-29T08:24:31.284Z,13.43
2023-01-29T08:27:08.016Z,13.90
2023-01-29T08:29:34.188Z,10.77
2023-01-29T08:32:00.390Z,11.38
2023-01-29T08:34:26.632Z,9.88
2023-01-29T08:36:52.850Z,12.35
2023-01-29T08:39:19.079Z,15.75
2023-01-29T08:41:45.221Z,11.95
2023-01-29T08:44:11.344Z,12.13
2023-01-29T08:46:37.516Z,12.68
2023-01-29T08:49:03.650Z,10.80
2023-01-29T08:51:29.838Z,13.18
2023-01-29T08:53:55.996Z,9.05
2023-01-29T08:56:22.143Z,9.32
2023-01-29T08:58:48.306Z,8.02
2023-01-29T09:01:14.516Z,11.80
2023-01-29T09:03:40.716Z,9.85
2023-01-29T09:06:06.860Z,10.90
2023-01-29T09:08:33.042Z,7.43
2023-01-29T09:10:59.196Z,8.10
2023-01-29T09:13:25.393Z,11.13
2023-01-29T09:15:51.510Z,10.70
2023-01-29T09:18:17.708Z,11.65
2023-01-29T09:20:43.859Z,8.95
2023-01-29T09:23:10.233Z,11.93
2023-01-29T09:25:36.485Z,9.45
2023-01-29T09:28:02.702Z,9.85
2023-01-29T09:30:28.874Z,12.15
2023-01-29T09:32:55.331Z,10.18
2023-01-29T09:35:21.591Z,11.05
2023-01-29T09:37:47.835Z,8.57
2023-01-29T09:40:13.980Z,10.50
2023-01-29T09:42:40.101Z,11.95
2023-01-29T09:45:06.265Z,10.60
2023-01-29T09:47:32.391Z,10.48
2023-01-29T09:49:58.628Z,9.80
2023-01-29T09:52:24.760Z,10.30
2023-01-29T09:54:50.908Z,9.90
2023-01-29T09:57:17.157Z,11.65
2023-01-29T09:59:43.373Z,13.73
2023-01-29T10:02:09.723Z,11.30
2023-01-29T10:04:36.063Z,10.75
2023-01-29T10:07:02.257Z,10.98
2023-01-29T10:09:28.445Z,10.70
2023-01-29T10:11:57.689Z,13.80
2023-01-29T10:14:24.440Z,14.05
2023-01-29T10:16:50.632Z,11.30
2023-01-29T10:19:16.827Z,13.77
2023-01-29T10:21:43.052Z,15.50
2023-01-29T10:24:09.229Z,15.23
2023-01-29T10:26:35.423Z,13.68
2023-01-29T10:29:01.627Z,14.30
2023-01-29T10:31:27.964Z,11.40
2023-01-29T10:34:02.137Z,14.30
2023-01-29T10:36:28.994Z,14.38
2023-01-29T10:38:55.156Z,14.75
2023-01-29T10:41:21.396Z,10.95
2023-01-29T10:43:47.530Z,15.88
2023-01-29T10:46:13.744Z,11.25
2023-01-29T10:48:39.878Z,13.95
2023-01-29T10:51:06.045Z,12.70
2023-01-29T10:53:32.212Z,13.23
2023-01-29T10:55:58.383Z,13.77
2023-01-29T10:58:24.571Z,13.02
2023-01-29T11:00:50.679Z,13.20
2023-01-29T11:03:27.063Z,12.90
2023-01-29T11:05:54.317Z,15.68
2023-01-29T11:08:20.522Z,15.60
2023-01-29T11:10:46.643Z,14.07
2023-01-29T11:13:12.804Z,13.27
2023-01-29T11:15:38.969Z,16.67
2023-01-29T11:18:05.180Z,12.70
2023-01-29T11:20:31.373Z,14.63
2023-01-29T11:22:57.528Z,12.43
2023-01-29T11:25:23.695Z,11.55
2023-01-29T11:27:49.956Z,15.27
2023-01-29T11:30:16.313Z,12.10
2023-01-29T11:32:42.695Z,15.93
2023-01-29T11:35:08.851Z,16.63
2023-01-29T11:37:34.994Z,12.48
2023-01-29T11:40:01.123Z,15.07
2023-01-29T11:42:27.370Z,12.63
2023-01-29T11:44:53.518Z,13.77
2023-01-29T11:47:19.680Z,15.65
2023-01-29T11:49:45.896Z,11.80
2023-01-29T11:52:12.061Z,15.75
2023-01-29T11:54:38.184Z,13.10
2023-01-29T11:57:04.382Z,14.20
2023-01-29T11:59:30.553Z,12.57
2023-01-29T12:01:56.783Z,12.07
2023-01-29T12:04:22.984Z,12.50
2023-01-29T12:06:50.244Z,14.43
2023-01-29T12:09:17.019Z,12.25
2023-01-29T12:11:43.261Z,12.77
2023-01-29T12:14:09.395Z,13.30
2023-01-29T12:16:35.615Z,12.90
2023-01-29T12:19:01.909Z,12.25
2023-01-29T12:21:28.109Z,13.93
2023-01-29T12:23:54.241Z,18.20
2023-01-29T12:26:20.466Z,16.23
2023-01-29T12:28:46.624Z,14.38
2023-01-29T12:31:12.873Z,13.10
2023-01-29T12:33:39.037Z,13.27
2023-01-29T12:36:05.212Z,12.05
2023-01-29T12:38:31.417Z,14.50
2023-01-29T12:40:57.553Z,13.45
2023-01-29T12:43:23.696Z,12.18
2023-01-29T12:45:49.825Z,12.82
2023-01-29T12:48:15.997Z,12.70
2023-01-29T12:50:42.187Z,11.20
2023-01-29T12:53:08.364Z,12.27
2023-01-29T12:55:34.598Z,12.05
2023-01-29T12:58:00.794Z,11.75
2023-01-29T13:00:27.013Z,13.68
2023-01-29T13:02:53.254Z,15.75
2023-01-29T13:05:19.454Z,14.68
2023-01-29T13:07:45.583Z,11.40
2023-01-29T13:10:11.805Z,13.90
2023-01-29T13:12:38.021Z,15.43
2023-01-29T13:15:04.226Z,12.68
2023-01-29T13:17:30.364Z,14.18
2023-01-29T13:19:56.518Z,12.05
2023-01-29T13:22:22.704Z,14.55
2023-01-29T13:24:58.741Z,16.77
2023-01-29T13:27:29.632Z,14.67
2023-01-29T13:29:55.857Z,15.90
2023-01-29T13:32:22.026Z,11.63
2023-01-29T13:34:48.167Z,10.13
2023-01-29T13:37:14.356Z,13.40
2023-01-29T13:39:40.500Z,9.18
2023-01-29T13:42:06.694Z,13.55
2023-01-29T13:44:32.895Z,12.55
2023-01-29T13:46:59.169Z,10.23
2023-01-29T13:49:25.319Z,10.98
2023-01-29T13:51:51.497Z,10.07
2023-01-29T13:54:17.666Z,9.52
2023-01-29T13:56:43.870Z,11.82
2023-01-29T13:59:10.012Z,13.82
2023-01-29T14:01:36.236Z,12.80
2023-01-29T14:04:06.061Z,14.02
2023-01-29T14:06:32.261Z,12.57
2023-01-29T14:08:58.465Z,10.98
2023-01-29T14:11:24.596Z,13.77
2023-01-29T14:13:50.743Z,11.48
2023-01-29T14:16:16.934Z,9.15
2023-01-29T14:18:43.165Z,9.68
2023-01-29T14:21:09.359Z,11.48
2023-01-29T14:23:35.516Z,10.43
2023-01-29T14:26:01.766Z,11.95
2023-01-29T14:28:27.962Z,13.27
2023-01-29T14:30:54.257Z,13.88
2023-01-29T14:33:20.630Z,18.83
2023-01-29T14:35:46.833Z,12.50
2023-01-29T14:38:13.015Z,13.30
2023-01-29T14:40:39.185Z,11.20
2023-01-29T14:43:05.475Z,11.80
2023-01-29T14:45:31.670Z,13.77
2023-01-29T14:47:57.813Z,13.35
2023-01-29T14:50:23.981Z,11.25
2023-01-29T14:52:52.907Z,13.05
2023-01-29T14:55:19.321Z,11.48
2023-01-29T14:57:45.714Z,11.68
2023-01-29T15:00:11.852Z,11.63
2023-01-29T15:02:38.129Z,13.50
2023-01-29T15:05:04.352Z,10.85
2023-01-29T15:07:30.559Z,12.48
2023-01-29T15:10:07.923Z,13.25
2023-01-29T15:12:42.972Z,12.07
2023-01-29T15:15:09.197Z,12.40
2023-01-29T15:17:35.376Z,16.38
2023-01-29T15:20:01.502Z,17.13
2023-01-29T15:22:27.671Z,15.75
2023-01-29T15:24:53.827Z,14.27
2023-01-29T15:27:20.008Z,13.00
2023-01-29T15:29:46.214Z,13.05
2023-01-29T15:32:12.400Z,11.65
2023-01-29T15:34:38.576Z,13.10
2023-01-29T15:37:04.731Z,15.65
2023-01-29T15:39:30.909Z,12.10
2023-01-29T15:41:57.101Z,12.07
2023-01-29T15:44:23.340Z,13.77
2023-01-29T15:46:49.540Z,11.68
2023-01-29T15:49:15.769Z,12.50
2023-01-29T15:51:41.952Z,11.77
2023-01-29T15:54:08.163Z,15.30
2023-01-29T15:56:34.348Z,13.07
2023-01-29T15:59:00.486Z,14.50
2023-01-29T16:01:26.695Z,16.10
2023-01-29T16:03:52.944Z,15.10
2023-01-29T16:06:19.109Z,12.43
2023-01-29T16:08:45.243Z,15.63
2023-01-29T16:11:11.437Z,15.38
2023-01-29T16:13:37.638Z,15.20
2023-01-29T16:16:03.841Z,16.88
2023-01-29T16:18:30.073Z,18.77
2023-01-29T16:20:56.437Z,16.27
2023-01-29T16:23:22.647Z,16.52
2023-01-29T16:25:48.793Z,14.20
2023-01-29T16:28:15.031Z,16.63
2023-01-29T16:30:41.314Z,13.88
2023-01-29T16:33:07.483Z,15.20
2023-01-29T16:35:33.678Z,16.17
2023-01-29T16:37:59.901Z,16.58
2023-01-29T16:40:26.122Z,15.93
2023-01-29T16:42:52.303Z,16.17
2023-01-29T16:45:18.904Z,16.27
2023-01-29T16:47:45.326Z,14.60
2023-01-29T16:50:11.527Z,16.90
2023-01-29T16:52:37.685Z,16.67
2023-01-29T16:55:03.902Z,22.50
2023-01-29T16:57:30.100Z,18.92
2023-01-29T16:59:56.259Z,20.23
2023-01-29T17:02:22.437Z,18.15
2023-01-29T17:04:48.653Z,18.45
2023-01-29T17:07:14.930Z,21.35
2023-01-29T17:09:41.115Z,17.08
2023-01-29T17:12:07.294Z,15.77
2023-01-29T17:14:33.493Z,18.70
2023-01-29T17:16:59.735Z,16.63
2023-01-29T17:19:25.996Z,19.98
2023-01-29T17:21:52.244Z,23.67
2023-01-29T17:24:18.463Z,24.17
2023-01-29T17:26:44.732Z,20.45
2023-01-29T17:29:11.064Z,35.35
2023-01-29T17:31:40.823Z,32.25
2023-01-29T17:34:06.988Z,28.40
2023-01-29T17:36:33.133Z,22.30
2023-01-29T17:38:59.397Z,22.10
2023-01-29T17:41:25.599Z,21.52
2023-01-29T17:43:51.793Z,22.10
2023-01-29T17:46:17.954Z,22.88
2023-01-29T17:48:44.479Z,20.52
2023-01-29T17:51:10.681Z,25.35
2023-01-29T17:53:45.650Z,18.27
2023-01-29T17:56:12.573Z,17.33
2023-01-29T17:58:38.730Z,18.50
2023-01-29T18:01:04.936Z,19.95
2023-01-29T18:03:31.189Z,18.02
2023-01-29T18:05:57.393Z,21.42
2023-01-29T18:08:23.559Z,20.00
2023-01-29T18:10:49.723Z,24.83
2023-01-29T18:13:15.915Z,23.77
2023-01-29T18:15:42.054Z,22.52
2023-01-29T18:18:09.688Z,26.27
2023-01-29T18:20:35.920Z,27.63
2023-01-29T18:23:02.078Z,30.15
2023-01-29T18:25:28.293Z,27.58
2023-01-29T18:27:54.456Z,30.77
2023-01-29T18:30:20.665Z,24.30
2023-01-29T18:32:46.863Z,24.75
2023-01-29T18:35:13.136Z,24.17
2023-01-29T18:37:39.372Z,26.27
2023-01-29T18:40:05.822Z,24.20
2023-01-29T18:42:31.994Z,20.75
2023-01-29T18:44:58.398Z,22.15
2023-01-29T18:47:24.640Z,21.88
2023-01-29T18:49:50.840Z,15.30
2023-01-29T18:52:17.138Z,18.42
2023-01-29T18:54:43.367Z,17.42
2023-01-29T18:57:14.016Z,21.05
2023-01-29T18:59:40.919Z,17.52
2023-01-29T19:02:07.360Z,18.15
2023-01-29T19:04:33.590Z,16.90
2023-01-29T19:06:59.801Z,19.63
2023-01-29T19:09:26.082Z,19.60
2023-01-29T19:11:52.637Z,24.00
2023-01-29T19:14:18.881Z,24.95
2023-01-29T19:16:45.113Z,27.17
2023-01-29T19:19:11.359Z,26.30
2023-01-29T19:21:37.543Z,27.48
2023-01-29T19:24:03.828Z,42.45
2023-01-29T19:26:30.339Z,49.83
2023-01-29T19:28:56.565Z,52.70
2023-01-29T19:31:22.999Z,45.90
2023-01-29T19:33:49.195Z,38.80
2023-01-29T19:36:15.387Z,37.25
2023-01-29T19:38:41.531Z,30.80
2023-01-29T19:41:07.746Z,30.50
2023-01-29T19:43:34.039Z,22.38
2023-01-29T19:46:00.200Z,21.88
2023-01-29T19:48:26.432Z,23.60
2023-01-29T19:50:52.645Z,26.77
2023-01-29T19:53:18.823Z,22.33
2023-01-29T19:55:45.073Z,24.13
2023-01-29T19:58:11.309Z,27.10
2023-01-29T20:00:37.611Z,27.23
2023-01-29T20:03:03.806Z,27.83
2023-01-29T20:05:30.008Z,24.58
2023-01-29T20:07:56.261Z,29.00
2023-01-29T20:10:22.488Z,36.22
2023-01-29T20:12:48.651Z,27.40
2023-01-29T20:15:14.921Z,29.85
2023-01-29T20:17:41.354Z,31.33
2023-01-29T20:20:07.717Z,29.95
2023-01-29T20:22:33.920Z,33.42
2023-01-29T20:25:00.137Z,20.38
2023-01-29T20:27:26.427Z,26.08
2023-01-29T20:29:52.707Z,22.83
2023-01-29T20:32:18.998Z,26.73
2023-01-29T20:34:45.191Z,24.55
2023-01-29T20:37:11.383Z,32.60
2023-01-29T20:39:37.606Z,24.73
2023-01-29T20:42:03.825Z,30.80
2023-01-29T20:44:30.011Z,29.00
2023-01-29T20:46:59.678Z,31.42
2023-01-29T20:51:53.963Z,30.77
2023-01-29T20:54:20.146Z,25.77
2023-01-29T20:56:47.167Z,31.73
2023-01-29T20:59:13.909Z,33.63
2023-01-29T21:01:41.036Z,31.67
2023-01-29T21:04:07.237Z,33.92
2023-01-29T21:06:33.434Z,40.55
2023-01-29T21:08:59.627Z,44.83
2023-01-29T21:11:25.798Z,44.00
2023-01-29T21:13:52.237Z,38.90
2023-01-29T21:16:18.573Z,34.08
2023-01-29T21:18:44.757Z,35.17
2023-01-29T21:21:10.932Z,31.83
2023-01-29T21:23:37.084Z,36.10
2023-01-29T21:26:03.235Z,32.38
2023-01-29T21:28:30.388Z,37.50
2023-01-29T21:30:56.592Z,31.27
2023-01-29T21:33:22.791Z,38.63
2023-01-29T21:35:48.949Z,33.00
2023-01-29T21:38:15.062Z,31.13
2023-01-29T21:40:41.406Z,36.80
2023-01-29T21:43:07.569Z,32.30
2023-01-29T21:45:35.471Z,30.95
2023-01-29T21:48:01.860Z,28.23
2023-01-29T21:50:27.989Z,23.92
2023-01-29T21:52:54.146Z,26.23
2023-01-29T21:55:20.267Z,21.77
2023-01-29T21:57:46.437Z,27.02
2023-01-29T22:00:12.618Z,29.65
2023-01-29T22:02:38.795Z,27.27
2023-01-29T22:05:18.038Z,26.73
2023-01-29T22:07:45.213Z,29.92
2023-01-29T22:10:11.556Z,24.25
2023-01-29T22:12:37.752Z,21.05
2023-01-29T22:15:03.920Z,25.75
2023-01-29T22:17:30.082Z,31.10
2023-01-29T22:19:56.252Z,24.60
2023-01-29T22:22:22.453Z,26.08
2023-01-29T22:24:48.634Z,22.70
2023-01-29T22:27:14.858Z,19.83
2023-01-29T22:29:41.042Z,20.20
2023-01-29T22:32:07.294Z,14.88
2023-01-29T22:34:33.481Z,22.63
2023-01-29T22:36:59.699Z,25.00
2023-01-29T22:39:25.905Z,20.00
2023-01-29T22:41:52.046Z,20.65
2023-01-29T22:44:18.241Z,22.80
2023-01-29T22:46:44.410Z,36.33
2023-01-29T22:49:10.605Z,29.95
2023-01-29T22:51:36.759Z,23.42
2023-01-29T22:54:02.939Z,21.80
2023-01-29T22:56:29.109Z,20.63
2023-01-29T22:58:55.302Z,19.33
2023-01-29T23:01:21.526Z,20.60
2023-01-29T23:03:47.726Z,20.55
2023-01-29T23:06:13.905Z,18.65
2023-01-29T23:08:40.096Z,21.02
2023-01-29T23:11:06.287Z,22.75
2023-01-29T23:13:32.411Z,17.27
2023-01-29T23:15:58.633Z,18.50
2023-01-29T23:18:24.860Z,19.17
2023-01-29T23:20:51.001Z,17.90
2023-01-29T23:23:17.187Z,19.25
2023-01-29T23:25:43.443Z,20.27
2023-01-29T23:28:09.678Z,22.25
2023-01-29T23:30:35.851Z,17.98
2023-01-29T23:33:02.202Z,20.98
2023-01-29T23:35:28.407Z,19.88
2023-01-29T23:37:54.615Z,22.58
2023-01-29T23:40:20.833Z,23.00
2023-01-29T23:42:47.043Z,21.70
2023-01-29T23:45:13.240Z,23.60
2023-01-29T23:47:39.396Z,24.90
2023-01-29T23:50:05.609Z,23.83
2023-01-29T23:52:31.763Z,22.17
2023-01-29T23:54:57.903Z,24.35
2023-01-29T23:57:24.080Z,22.88
2023-01-29T23:59:50.229Z,24.10
